Time;durP1;ratioP1;P1;durP2;ratioP2;P2;SDS_P1;SDS_P2;PMS_P1;PMS_P2;Temp;Humidity;BMP_temperature;BMP_pressure;BME280_temperature;BME280_humidity;BME280_pressure;Samples;Min_cycle;Max_cycle;Signal;HPM_P1;HPM_P2
2023/12/07 00:00:26;;;;;;;9.70;8.90;;;;;;;2.87;76.12;98317.19;5114935;28;20209;-77
2023/12/07 00:02:53;;;;;;;8.82;8.02;;;;;;;2.68;77.09;98328.78;5115970;27;20267;-77
2023/12/07 00:05:20;;;;;;;9.35;8.45;;;;;;;2.53;77.25;98326.72;5118975;28;20679;-77
2023/12/07 00:07:47;;;;;;;9.18;8.35;;;;;;;2.59;77.40;98339.50;5110293;27;20199;-77
2023/12/07 00:10:14;;;;;;;9.60;8.70;;;;;;;2.48;78.09;98326.31;5118021;28;20201;-77
2023/12/07 00:12:41;;;;;;;9.80;9.00;;;;;;;2.42;78.17;98333.06;5119142;28;20195;-77
2023/12/07 00:15:08;;;;;;;8.95;7.88;;;;;;;2.52;77.70;98325.88;5118884;28;20196;-77
2023/12/07 00:17:35;;;;;;;9.25;8.43;;;;;;;2.47;77.97;98330.81;5111792;28;20418;-78
2023/12/07 00:20:04;;;;;;;10.18;9.15;;;;;;;2.42;78.24;98325.06;5123799;28;20652;-77
2023/12/07 00:22:32;;;;;;;10.43;9.32;;;;;;;2.47;77.89;98328.13;5113257;27;20203;-76
2023/12/07 00:24:58;;;;;;;9.30;8.35;;;;;;;2.56;77.27;98323.75;5123216;27;20234;-77
2023/12/07 00:27:25;;;;;;;10.07;9.18;;;;;;;2.49;77.45;98334.19;5112774;27;20492;-77
2023/12/07 00:29:51;;;;;;;8.93;8.02;;;;;;;2.74;76.74;98337.19;5120488;27;20207;-77
2023/12/07 00:32:18;;;;;;;9.43;8.52;;;;;;;2.81;76.52;98332.97;5113952;27;20668;-77
2023/12/07 00:34:44;;;;;;;10.40;9.30;;;;;;;2.47;77.75;98340.66;5113286;27;20222;-77
2023/12/07 00:37:11;;;;;;;9.48;8.55;;;;;;;2.44;78.13;98338.25;5116922;27;20207;-77
2023/12/07 00:39:39;;;;;;;9.70;8.80;;;;;;;2.49;78.06;98347.53;5132066;27;20202;-78
2023/12/07 00:42:05;;;;;;;9.60;8.70;;;;;;;2.32;78.55;98348.25;5121384;27;20202;-77
2023/12/07 00:44:31;;;;;;;9.85;8.95;;;;;;;2.38;78.51;98341.50;5110796;27;20228;-77
2023/12/07 00:46:58;;;;;;;9.20;8.40;;;;;;;2.31;79.04;98341.22;5121686;27;20209;-77
2023/12/07 00:49:24;;;;;;;9.40;8.50;;;;;;;2.27;79.13;98340.69;5114355;27;20653;-78
2023/12/07 00:51:51;;;;;;;9.32;8.43;;;;;;;2.37;78.66;98343.34;5115934;27;20206;-78
2023/12/07 00:54:17;;;;;;;10.05;9.02;;;;;;;2.26;79.10;98348.84;5111599;27;20235;-78
2023/12/07 00:56:45;;;;;;;9.30;8.40;;;;;;;2.23;79.08;98354.47;5129347;27;20562;-77
2023/12/07 00:59:11;;;;;;;10.52;9.30;;;;;;;2.23;79.38;98351.81;5113044;27;20649;-76
2023/12/07 01:01:39;;;;;;;10.70;9.65;;;;;;;2.37;79.37;98351.34;5115324;27;20201;-77
2023/12/07 01:04:06;;;;;;;9.82;8.60;;;;;;;2.50;78.65;98351.88;5119421;27;20229;-77
2023/12/07 01:06:32;;;;;;;11.80;8.68;;;;;;;2.36;78.75;98355.84;5116111;27;20205;-77
2023/12/07 01:08:59;;;;;;;9.75;8.85;;;;;;;2.23;79.25;98363.31;5125016;27;20664;-77
2023/12/07 01:11:25;;;;;;;10.40;9.10;;;;;;;2.26;79.35;98359.53;5120351;27;20739;-77
2023/12/07 01:13:53;;;;;;;9.38;8.50;;;;;;;2.28;79.56;98362.88;5113558;27;20222;-77
2023/12/07 01:16:20;;;;;;;9.70;8.55;;;;;;;2.25;79.26;98368.53;5120509;27;20221;-77
2023/12/07 01:18:46;;;;;;;9.32;8.43;;;;;;;2.32;79.27;98358.94;5120260;27;20755;-77
2023/12/07 01:21:13;;;;;;;9.95;9.05;;;;;;;2.43;79.07;98366.78;5114405;27;20224;-77
2023/12/07 01:23:39;;;;;;;9.02;8.18;;;;;;;2.38;79.93;98368.22;5114220;27;20244;-76
2023/12/07 01:26:06;;;;;;;10.52;9.05;;;;;;;2.36;79.63;98371.88;5115996;27;20194;-76
2023/12/07 01:28:33;;;;;;;10.43;8.45;;;;;;;2.44;79.92;98376.50;5120041;27;20630;-76
2023/12/07 01:31:01;;;;;;;9.80;8.90;;;;;;;2.53;79.49;98372.97;5126205;27;20222;-77
2023/12/07 01:33:27;;;;;;;9.32;8.43;;;;;;;2.60;79.06;98363.38;5116152;27;20599;-77
2023/12/07 01:35:54;;;;;;;10.00;8.80;;;;;;;2.68;78.71;98378.69;5124031;27;20210;-77
2023/12/07 01:38:20;;;;;;;9.75;8.85;;;;;;;2.78;78.58;98376.84;5120137;27;20204;-77
2023/12/07 01:40:47;;;;;;;9.23;8.43;;;;;;;2.88;78.81;98366.13;5115797;27;20193;-77
2023/12/07 01:43:13;;;;;;;9.65;8.75;;;;;;;3.01;77.47;98380.00;5113270;27;20309;-77
2023/12/07 01:45:40;;;;;;;8.63;7.82;;;;;;;2.84;78.20;98373.59;5118754;27;20208;-77
2023/12/07 01:48:08;;;;;;;9.15;8.32;;;;;;;2.98;77.86;98382.97;5122089;27;20205;-77
2023/12/07 01:50:34;;;;;;;9.70;8.80;;;;;;;2.86;78.08;98381.47;5117085;27;20208;-77
2023/12/07 01:53:02;;;;;;;9.13;8.25;;;;;;;2.94;77.53;98382.41;5108926;27;20580;-77
2023/12/07 01:55:30;;;;;;;9.20;8.05;;;;;;;2.97;77.51;98375.94;5118136;27;20203;-77
2023/12/07 01:57:56;;;;;;;9.23;8.32;;;;;;;3.12;76.75;98379.81;5124623;27;20208;-77
2023/12/07 02:00:23;;;;;;;8.60;7.80;;;;;;;3.07;77.72;98381.25;5112769;27;20210;-77
2023/12/07 02:02:51;;;;;;;9.13;8.23;;;;;;;2.95;77.54;98380.56;5128464;27;20231;-77
2023/12/07 02:05:19;;;;;;;8.63;7.93;;;;;;;2.96;77.71;98380.44;5110717;27;20233;-78
2023/12/07 02:07:45;;;;;;;9.25;8.38;;;;;;;3.25;76.69;98393.69;5117472;27;20212;-77
2023/12/07 02:10:13;;;;;;;9.05;7.90;;;;;;;3.27;76.62;98388.19;5120614;27;20293;-77
2023/12/07 02:12:40;;;;;;;8.55;7.75;;;;;;;3.24;76.62;98393.88;5129070;27;20322;-77
2023/12/07 02:15:08;;;;;;;9.27;8.32;;;;;;;3.27;76.61;98386.34;5120780;27;20202;-78
2023/12/07 02:17:36;;;;;;;8.48;7.72;;;;;;;3.27;77.14;98388.19;5127976;27;20233;-78
2023/12/07 02:20:08;;;;;;;9.43;8.43;;;;;;;3.23;77.09;98387.69;5127244;27;20202;-77
2023/12/07 02:22:39;;;;;;;9.45;8.35;;;;;;;3.15;76.96;98381.38;5126343;27;20280;-77
2023/12/07 02:25:08;;;;;;;9.85;8.48;;;;;;;3.11;77.43;98383.50;5119936;27;20254;-77
2023/12/07 02:27:39;;;;;;;9.02;7.78;;;;;;;3.00;77.80;98379.16;5111722;27;20209;-77
2023/12/07 02:30:08;;;;;;;9.27;8.00;;;;;;;2.89;78.08;98378.50;5129338;27;20202;-78
2023/12/07 02:32:34;;;;;;;9.15;8.20;;;;;;;3.01;77.72;98382.69;5113428;27;20201;-78
2023/12/07 02:35:01;;;;;;;8.25;7.40;;;;;;;3.45;76.64;98377.56;5110861;27;20209;-77
2023/12/07 02:37:29;;;;;;;9.57;8.68;;;;;;;3.51;76.09;98379.66;5120542;27;20554;-78
2023/12/07 02:39:57;;;;;;;8.95;8.15;;;;;;;3.50;76.48;98377.97;5112864;27;20195;-78
2023/12/07 02:42:24;;;;;;;8.90;8.10;;;;;;;3.19;77.52;98382.75;5114978;27;20199;-77
2023/12/07 02:44:52;;;;;;;9.55;8.55;;;;;;;3.29;76.78;98392.41;5113951;27;20701;-77
2023/12/07 02:47:19;;;;;;;10.50;8.93;;;;;;;3.25;76.86;98390.19;5107719;27;20195;-78
2023/12/07 02:49:45;;;;;;;10.93;9.82;;;;;;;3.19;76.86;98385.44;5122306;27;20194;-78
2023/12/07 02:52:12;;;;;;;9.02;8.13;;;;;;;3.22;77.33;98382.47;5111550;27;20198;-78
2023/12/07 02:54:38;;;;;;;10.75;9.82;;;;;;;3.15;77.32;98384.88;5108015;28;20226;-78
2023/12/07 02:57:05;;;;;;;10.00;9.00;;;;;;;2.98;78.10;98382.97;5120461;27;20640;-78
2023/12/07 02:59:32;;;;;;;10.18;9.10;;;;;;;2.86;78.55;98384.16;5110564;28;20207;-78
2023/12/07 03:01:59;;;;;;;10.90;9.65;;;;;;;2.73;78.91;98392.47;5121361;27;20201;-78
2023/12/07 03:04:26;;;;;;;10.48;9.45;;;;;;;2.93;78.38;98394.09;5110189;27;20225;-78
2023/12/07 03:06:52;;;;;;;9.85;9.05;;;;;;;2.91;78.07;98387.22;5109521;27;20207;-77
2023/12/07 03:09:19;;;;;;;10.85;9.82;;;;;;;2.75;78.56;98393.16;5122817;27;20207;-77
2023/12/07 03:11:45;;;;;;;12.35;10.07;;;;;;;2.74;78.46;98391.47;5126185;27;20289;-78
2023/12/07 03:14:12;;;;;;;11.18;10.18;;;;;;;2.64;78.92;98396.84;5115611;27;20232;-78
2023/12/07 03:16:39;;;;;;;11.38;10.20;;;;;;;2.72;78.61;98387.25;5110185;27;20196;-77
2023/12/07 03:19:07;;;;;;;11.75;10.65;;;;;;;2.53;78.85;98394.34;5106878;27;20204;-78
2023/12/07 03:21:34;;;;;;;10.93;9.75;;;;;;;2.53;79.18;98398.84;5111765;28;20365;-78
2023/12/07 03:24:00;;;;;;;11.25;10.15;;;;;;;2.31;80.22;98394.63;5109172;27;20235;-78
2023/12/07 03:26:26;;;;;;;12.23;11.00;;;;;;;2.24;80.15;98393.53;5126068;27;20196;-78
2023/12/07 03:28:53;;;;;;;12.80;11.50;;;;;;;2.09;80.66;98392.25;5117204;28;20197;-77
2023/12/07 03:31:19;;;;;;;11.70;10.55;;;;;;;2.20;80.89;98397.47;5112707;27;20587;-77
2023/12/07 03:33:46;;;;;;;12.32;10.52;;;;;;;2.20;80.95;98394.78;5113579;28;20216;-78
2023/12/07 03:36:14;;;;;;;12.38;11.18;;;;;;;2.13;80.98;98399.00;5111596;28;20881;-77
2023/12/07 03:38:40;;;;;;;13.10;11.80;;;;;;;2.03;81.57;98391.81;5111000;27;20204;-77
2023/12/07 03:41:06;;;;;;;11.90;10.70;;;;;;;2.12;81.55;98400.00;5116097;28;20203;-78
2023/12/07 03:43:33;;;;;;;12.18;10.57;;;;;;;2.13;81.40;98396.34;5125983;28;20559;-78
2023/12/07 03:45:59;;;;;;;12.38;11.10;;;;;;;2.12;81.47;98400.81;5111298;28;20228;-78
2023/12/07 03:48:26;;;;;;;13.43;11.13;;;;;;;1.95;82.12;98405.03;5115396;27;20203;-77
2023/12/07 03:50:52;;;;;;;12.30;10.48;;;;;;;1.99;82.67;98411.78;5119309;27;20207;-77
2023/12/07 03:53:20;;;;;;;11.00;9.88;;;;;;;2.05;82.89;98412.19;5120205;28;20219;-77
2023/12/07 03:55:47;;;;;;;11.60;10.38;;;;;;;2.19;82.40;98404.63;5122885;27;20207;-77
2023/12/07 03:58:14;;;;;;;12.77;11.57;;;;;;;2.11;81.82;98414.31;5114194;27;20208;-79
2023/12/07 04:00:41;;;;;;;12.50;11.27;;;;;;;2.11;82.37;98414.31;5116931;27;20234;-78
2023/12/07 04:03:07;;;;;;;11.93;10.80;;;;;;;2.26;82.28;98412.94;5118598;27;20919;-78
2023/12/07 04:05:34;;;;;;;12.93;11.63;;;;;;;2.15;82.36;98413.06;5123202;27;20231;-78
2023/12/07 04:08:01;;;;;;;14.25;12.70;;;;;;;1.90;82.99;98419.78;5117767;27;20549;-79
2023/12/07 04:10:28;;;;;;;12.75;11.45;;;;;;;1.86;83.84;98421.03;5121208;27;20912;-78
2023/12/07 04:12:55;;;;;;;13.75;12.35;;;;;;;1.82;83.85;98415.13;5122190;27;20599;-78
2023/12/07 04:15:22;;;;;;;14.32;12.93;;;;;;;1.65;85.02;98423.78;5123729;27;20203;-78
2023/12/07 04:17:49;;;;;;;13.45;12.02;;;;;;;1.52;85.41;98413.38;5119532;27;20704;-77
2023/12/07 04:20:16;;;;;;;14.90;13.35;;;;;;;1.72;84.34;98416.94;5120408;27;20202;-77
2023/12/07 04:22:44;;;;;;;15.65;14.05;;;;;;;1.56;84.64;98428.13;5128374;27;20227;-77
2023/12/07 04:25:10;;;;;;;15.23;13.73;;;;;;;1.28;86.21;98432.41;5114119;27;20270;-77
2023/12/07 04:27:38;;;;;;;14.45;13.05;;;;;;;1.26;86.97;98433.50;5108974;27;20202;-77
2023/12/07 04:30:06;;;;;;;16.90;13.23;;;;;;;1.32;86.28;98428.47;5120060;27;20202;-76
2023/12/07 04:32:32;;;;;;;15.77;14.18;;;;;;;1.50;86.39;98430.50;5115297;27;20654;-77
2023/12/07 04:34:59;;;;;;;15.52;13.35;;;;;;;1.64;85.32;98422.09;5121530;27;20191;-77
2023/12/07 04:37:25;;;;;;;16.85;13.05;;;;;;;1.39;85.72;98430.59;5129350;27;20203;-78
2023/12/07 04:39:52;;;;;;;15.52;13.82;;;;;;;1.22;86.64;98434.75;5113172;27;20200;-77
2023/12/07 04:42:18;;;;;;;14.98;13.35;;;;;;;1.12;87.18;98432.03;5130783;27;20212;-78
2023/12/07 04:44:46;;;;;;;13.98;12.57;;;;;;;1.34;86.80;98431.84;5126663;27;20219;-76
2023/12/07 04:47:13;;;;;;;15.35;13.40;;;;;;;1.43;86.23;98438.19;5125513;27;20214;-76
2023/12/07 04:49:39;;;;;;;14.90;13.40;;;;;;;1.44;85.91;98433.69;5114963;27;20204;-76
2023/12/07 04:52:07;;;;;;;15.50;13.90;;;;;;;1.23;86.14;98439.09;5111954;27;20195;-77
2023/12/07 04:54:33;;;;;;;16.88;14.57;;;;;;;1.15;86.81;98436.25;5125960;27;20191;-76
2023/12/07 04:56:59;;;;;;;15.43;13.82;;;;;;;1.03;87.69;98438.16;5124132;27;20209;-76
2023/12/07 04:59:26;;;;;;;15.38;13.82;;;;;;;1.06;87.92;98448.56;5124214;27;20195;-76
2023/12/07 05:01:54;;;;;;;15.02;13.45;;;;;;;1.13;87.96;98444.38;5121239;27;20206;-77
2023/12/07 05:04:20;;;;;;;15.77;13.98;;;;;;;1.11;87.89;98441.00;5127759;27;20825;-76
2023/12/07 05:06:47;;;;;;;15.75;14.10;;;;;;;1.06;88.42;98437.03;5128536;27;20573;-76
2023/12/07 05:09:13;;;;;;;18.77;15.50;;;;;;;0.89;88.67;98431.38;5126931;27;20545;-77
2023/12/07 05:11:40;;;;;;;17.20;15.40;;;;;;;0.81;89.58;98427.66;5113711;27;20202;-78
2023/12/07 05:14:07;;;;;;;17.05;15.10;;;;;;;0.78;89.90;98438.59;5113798;27;20716;-77
2023/12/07 05:16:33;;;;;;;16.83;14.40;;;;;;;0.75;90.02;98438.84;5127819;27;20593;-77
2023/12/07 05:19:02;;;;;;;19.45;16.58;;;;;;;0.67;90.21;98442.16;5128325;27;20198;-77
2023/12/07 05:21:29;;;;;;;17.85;16.05;;;;;;;0.67;90.62;98443.00;5121975;27;20639;-77
2023/12/07 05:23:55;;;;;;;18.65;16.40;;;;;;;0.58;90.84;98438.47;5115785;27;20222;-77
2023/12/07 05:26:22;;;;;;;17.63;15.80;;;;;;;0.70;90.42;98447.22;5125708;27;20236;-77
2023/12/07 05:28:48;;;;;;;18.58;16.65;;;;;;;0.83;90.07;98447.03;5125889;27;20234;-79
2023/12/07 05:31:17;;;;;;;17.13;15.43;;;;;;;0.76;90.07;98448.53;5118602;27;20202;-78
2023/12/07 05:33:43;;;;;;;18.58;16.67;;;;;;;0.65;90.23;98450.25;5120578;27;20230;-78
2023/12/07 05:36:12;;;;;;;22.40;16.80;;;;;;;0.72;90.31;98455.06;5115299;27;20203;-79
2023/12/07 05:38:38;;;;;;;19.67;15.55;;;;;;;0.61;90.46;98454.19;5111871;27;20630;-78
2023/12/07 05:41:04;;;;;;;18.25;16.27;;;;;;;0.57;90.52;98450.09;5117542;27;20192;-78
2023/12/07 05:43:33;;;;;;;19.13;16.33;;;;;;;0.72;90.17;98447.94;5117446;27;20229;-78
2023/12/07 05:46:00;;;;;;;20.52;16.98;;;;;;;0.68;90.39;98457.16;5115090;27;20275;-78
2023/12/07 05:48:26;;;;;;;20.27;16.55;;;;;;;0.24;90.47;98408.53;5124006;27;20296;-77
2023/12/07 05:50:53;;;;;;;19.15;16.30;;;;;;;0.71;89.96;98448.91;5113401;27;20252;-78
2023/12/07 05:53:21;;;;;;;20.48;17.45;;;;;;;0.57;90.41;98450.09;5123625;27;20226;-77
2023/12/07 05:55:47;;;;;;;18.23;15.90;;;;;;;0.61;90.29;98438.22;5115647;27;20195;-79
2023/12/07 05:58:14;;;;;;;18.60;16.60;;;;;;;0.55;90.46;98444.06;5114449;27;20210;-77
2023/12/07 06:00:40;;;;;;;19.27;16.15;;;;;;;0.52;90.57;98438.13;5109291;27;20191;-76
2023/12/07 06:03:09;;;;;;;17.10;15.38;;;;;;;0.62;89.50;98437.25;5111828;27;20290;-76
2023/12/07 06:05:35;;;;;;;18.90;16.17;;;;;;;0.66;89.60;98451.09;5120468;27;20226;-76
2023/12/07 06:08:03;;;;;;;18.88;16.25;;;;;;;0.67;89.21;98445.66;5128214;27;20216;-77
2023/12/07 06:10:30;;;;;;;17.40;15.00;;;;;;;0.44;89.76;98451.25;5111251;27;20290;-78
2023/12/07 06:12:58;;;;;;;19.27;14.77;;;;;;;0.41;90.20;98444.34;5113862;27;20226;-78
2023/12/07 06:15:25;;;;;;;17.42;14.68;;;;;;;0.52;89.74;98451.44;5110946;28;20286;-78
2023/12/07 06:17:51;;;;;;;18.70;15.63;;;;;;;0.49;89.64;98454.38;5110267;27;20291;-76
2023/12/07 06:20:18;;;;;;;19.58;15.90;;;;;;;0.44;89.96;98453.91;5110461;27;20206;-73
2023/12/07 06:22:44;;;;;;;17.52;15.18;;;;;;;0.47;89.90;98451.00;5106304;27;20233;-82
2023/12/07 06:25:12;;;;;;;16.67;13.85;;;;;;;0.51;89.78;98452.41;5105786;27;20218;-73
2023/12/07 06:27:40;;;;;;;18.90;15.90;;;;;;;0.53;89.95;98440.66;5107283;27;20191;-73
2023/12/07 06:30:07;;;;;;;17.85;14.57;;;;;;;0.46;89.99;98444.81;5111082;27;20194;-82
2023/12/07 06:32:34;;;;;;;17.98;14.60;;;;;;;0.60;89.60;98455.16;5114854;27;20758;-79
2023/12/07 06:35:01;;;;;;;17.33;14.15;;;;;;;0.54;89.42;98450.34;5120450;27;20196;-77
2023/12/07 06:37:27;;;;;;;16.77;14.15;;;;;;;0.63;89.07;98451.41;5119219;27;20281;-78
2023/12/07 06:39:54;;;;;;;16.27;14.52;;;;;;;0.61;88.73;98443.53;5116740;27;20295;-77
2023/12/07 06:42:20;;;;;;;18.50;14.77;;;;;;;0.44;89.35;98457.41;5111415;27;20215;-77
2023/12/07 06:44:49;;;;;;;20.05;14.63;;;;;;;0.36;89.68;98453.69;5115364;27;20200;-77
2023/12/07 06:47:16;;;;;;;19.85;15.82;;;;;;;0.17;90.28;98452.56;5118288;27;20202;-79
2023/12/07 06:49:42;;;;;;;17.65;15.63;;;;;;;0.14;91.06;98454.63;5107937;27;20243;-78
2023/12/07 06:52:10;;;;;;;18.17;16.17;;;;;;;0.25;90.88;98451.94;5006758;27;51873;-78
2023/12/07 06:54:38;;;;;;;17.70;15.52;;;;;;;0.29;90.63;98456.03;5053716;28;20189;-77
2023/12/07 06:59:25;;;;;;;19.10;17.05;;;;;;;0.27;91.33;98456.16;5049059;27;21086;-76
2023/12/07 07:01:51;;;;;;;21.45;18.10;;;;;;;0.08;91.89;98460.47;5051998;28;20193;-75
2023/12/07 07:04:18;;;;;;;20.50;18.20;;;;;;;0.15;91.69;98456.31;4865348;28;20620;-75
2023/12/07 07:06:45;;;;;;;24.55;19.65;;;;;;;0.16;91.73;98466.00;4867547;28;54184;-71
2023/12/07 07:09:12;;;;;;;23.35;19.30;;;;;;;0.20;91.63;98456.81;4900849;28;66146;-73
2023/12/07 07:11:48;;;;;;;23.58;18.30;;;;;;;0.19;91.68;98452.44;5101993;27;21489;-73
2023/12/07 07:14:15;;;;;;;22.35;19.83;;;;;;;0.19;91.80;98458.63;5053861;28;20196;-74
2023/12/07 07:16:42;;;;;;;26.25;20.25;;;;;;;0.27;91.60;98457.97;5016340;27;20725;-74
2023/12/07 07:19:08;;;;;;;25.67;20.45;;;;;;;0.24;91.85;98460.91;5157829;23;20831;-70
2023/12/07 07:21:35;;;;;;;23.27;19.33;;;;;;;0.18;91.94;98461.41;4986092;28;20222;-70
2023/12/07 07:24:02;;;;;;;25.25;20.17;;;;;;;0.12;91.84;98452.09;4972970;28;20976;-70
2023/12/07 07:26:28;;;;;;;25.10;19.55;;;;;;;0.13;92.39;98451.13;5000337;28;20237;-70
2023/12/07 07:28:57;;;;;;;23.80;19.73;;;;;;;0.19;92.12;98455.09;5009129;28;20244;-70
2023/12/07 07:31:23;;;;;;;24.58;19.73;;;;;;;0.08;92.31;98461.31;4980086;28;20225;-70
2023/12/07 07:35:02;;;;;;;22.90;18.45;;;;;;;0.07;92.71;98459.63;5030537;27;20651;-72
2023/12/07 07:39:26;;;;;;;25.02;18.80;;;;;;;0.08;92.85;98449.81;5079827;27;20630;-71
2023/12/07 07:41:53;;;;;;;24.38;19.00;;;;;;;0.12;93.26;98461.91;5089023;28;20282;-71
2023/12/07 07:44:20;;;;;;;21.73;19.17;;;;;;;-0.01;93.08;98462.94;5091334;28;20227;-70
2023/12/07 07:46:47;;;;;;;20.98;17.95;;;;;;;0.08;93.31;98468.44;5076408;28;20206;-69
2023/12/07 07:49:13;;;;;;;21.35;18.38;;;;;;;0.17;92.86;98465.88;5101420;27;21469;-70
2023/12/07 07:51:40;;;;;;;19.95;17.85;;;;;;;0.38;91.98;98463.25;5065492;28;20210;-69
2023/12/07 07:54:06;;;;;;;23.42;18.15;;;;;;;0.26;91.99;98474.94;4958408;28;20231;-69
2023/12/07 07:56:35;;;;;;;19.80;17.10;;;;;;;0.34;92.12;98475.13;5021590;28;20470;-70
2023/12/07 07:59:02;;;;;;;21.00;16.77;;;;;;;0.39;91.67;98472.91;4963914;28;53750;-69
2023/12/07 08:01:28;;;;;;;20.20;16.90;;;;;;;0.42;91.78;98475.31;4987278;28;20208;-69
2023/12/07 08:05:05;;;;;;;19.23;17.00;;;;;;;0.57;91.65;98475.88;4986315;27;20662;-70
2023/12/07 08:07:33;;;;;;;21.50;17.85;;;;;;;0.68;90.65;98476.63;4941465;28;53459;-70
2023/12/07 08:10:00;;;;;;;19.92;16.02;;;;;;;0.80;90.50;98476.59;5052320;28;20211;-70
2023/12/07 08:15:34;;;;;;;18.83;16.85;;;;;;;0.93;89.23;98479.91;4930269;27;53628;-69
2023/12/07 08:18:00;;;;;;;18.40;16.30;;;;;;;1.13;88.57;98487.03;5014758;28;20623;-70
2023/12/07 08:20:27;;;;;;;17.02;15.32;;;;;;;1.24;88.03;98481.63;5096104;28;20210;-70
2023/12/07 08:22:53;;;;;;;18.90;15.80;;;;;;;1.49;87.99;98471.47;5073343;28;20198;-70
2023/12/07 08:25:21;;;;;;;16.20;14.70;;;;;;;1.66;86.10;98465.50;5043816;28;20205;-70
2023/12/07 08:27:47;;;;;;;16.45;14.75;;;;;;;1.74;86.29;98471.00;5033089;27;20286;-70
2023/12/07 08:30:14;;;;;;;15.45;13.85;;;;;;;1.80;86.03;98475.78;4964385;28;20241;-70
2023/12/07 08:32:42;;;;;;;15.05;13.57;;;;;;;1.87;86.16;98470.75;4982081;28;20230;-70
2023/12/07 08:35:10;;;;;;;14.00;12.60;;;;;;;1.85;84.78;98467.38;5032115;28;20902;-70
2023/12/07 08:37:38;;;;;;;13.68;12.45;;;;;;;2.03;85.05;98466.56;5001507;28;20231;-70
2023/12/07 08:41:53;;;;;;;13.00;11.80;;;;;;;2.30;82.62;98468.56;5040714;27;21360;-70
2023/12/07 08:44:20;;;;;;;13.20;11.90;;;;;;;2.66;82.26;98461.66;5052185;27;20327;-69
2023/12/07 08:46:46;;;;;;;14.80;13.30;;;;;;;2.73;81.94;98464.63;5066585;27;20258;-70
2023/12/07 08:49:14;;;;;;;12.98;11.68;;;;;;;2.86;81.15;98464.34;5064961;28;20233;-70
2023/12/07 08:56:00;;;;;;;12.00;10.90;;;;;;;4.27;74.23;98450.56;4948740;27;20769;-70
2023/12/07 08:58:27;;;;;;;11.57;10.38;;;;;;;5.04;72.13;98452.56;5018760;28;20235;-70
2023/12/07 09:01:13;;;;;;;11.05;10.05;;;;;;;5.93;69.24;98444.16;5032900;28;20227;-70
2023/12/07 09:03:41;;;;;;;10.50;9.50;;;;;;;5.87;67.24;98444.78;5038962;28;20665;-70
2023/12/07 09:06:08;;;;;;;14.98;9.25;;;;;;;6.09;66.43;98440.69;5000005;28;20225;-71
2023/12/07 09:10:37;;;;;;;11.35;10.25;;;;;;;5.96;65.50;98433.09;4971036;27;30029;-70
2023/12/07 09:13:59;;;;;;;10.95;9.93;;;;;;;5.86;65.37;98437.72;4897982;28;20825;-70
2023/12/07 09:16:26;;;;;;;11.02;9.85;;;;;;;6.12;65.41;98434.16;4995268;28;20199;-70
2023/12/07 09:18:53;;;;;;;10.95;10.05;;;;;;;5.68;65.19;98439.66;5005058;28;20189;-70
2023/12/07 09:21:20;;;;;;;11.35;10.43;;;;;;;5.61;66.45;98423.38;5001793;28;20780;-70
2023/12/07 09:23:47;;;;;;;10.95;10.02;;;;;;;6.27;64.78;98419.06;4999810;28;20240;-71
2023/12/07 09:26:13;;;;;;;11.00;10.00;;;;;;;6.21;64.04;98409.78;5001829;28;20729;-71
2023/12/07 09:28:40;;;;;;;12.75;11.55;;;;;;;6.14;64.00;98429.47;5003890;28;20755;-71
2023/12/07 09:31:08;;;;;;;11.77;10.07;;;;;;;6.19;64.44;98421.72;5015973;28;20192;-71
2023/12/07 09:33:35;;;;;;;11.50;10.52;;;;;;;6.41;63.43;98421.09;5017543;28;20229;-71
2023/12/07 09:36:03;;;;;;;10.57;9.57;;;;;;;6.71;62.94;98428.50;5019017;28;20197;-71
2023/12/07 09:38:30;;;;;;;10.98;10.07;;;;;;;6.81;62.31;98414.06;5020871;28;20199;-71
2023/12/07 09:40:57;;;;;;;10.73;9.68;;;;;;;6.20;64.11;98428.78;5000011;28;20193;-71
2023/12/07 09:43:23;;;;;;;11.25;10.25;;;;;;;6.72;62.76;98421.28;5002880;28;20204;-73
2023/12/07 09:45:53;;;;;;;10.38;9.52;;;;;;;6.28;62.91;98410.81;5005176;28;20199;-71
2023/12/07 09:48:22;;;;;;;11.13;10.13;;;;;;;5.61;64.98;98403.72;5006221;28;20656;-71
2023/12/07 09:50:49;;;;;;;10.23;9.15;;;;;;;6.28;64.04;98407.28;5032526;28;20206;-72
2023/12/07 09:53:16;;;;;;;10.50;9.48;;;;;;;6.78;62.17;98400.94;5019902;28;20210;-80
2023/12/07 09:55:43;;;;;;;11.05;10.05;;;;;;;7.19;61.25;98415.16;5014155;28;20200;-74
2023/12/07 09:58:09;;;;;;;10.98;10.00;;;;;;;7.56;59.38;98415.38;5015405;28;20678;-72
2023/12/07 10:00:37;;;;;;;10.88;9.88;;;;;;;7.25;61.00;98411.78;5016545;28;20191;-78
2023/12/07 10:03:07;;;;;;;9.82;8.95;;;;;;;7.87;58.90;98401.94;5019588;28;20185;-77
2023/12/07 10:05:54;;;;;;;9.68;8.85;;;;;;;8.20;57.84;98388.28;5020702;28;20207;-77
2023/12/07 10:08:27;;;;;;;9.85;8.95;;;;;;;7.83;57.39;98386.31;5017779;28;20807;-81
2023/12/07 10:11:03;;;;;;;9.50;8.70;;;;;;;7.84;57.99;98377.22;5021942;28;20190;-77
2023/12/07 10:13:30;;;;;;;9.80;8.90;;;;;;;8.72;55.74;98381.19;5031635;28;20252;-78
2023/12/07 10:16:06;;;;;;;9.30;8.40;;;;;;;9.38;53.33;98374.13;5021794;28;20232;-78
2023/12/07 10:18:34;;;;;;;9.48;8.25;;;;;;;9.30;53.55;98376.06;5021028;28;20200;-78
2023/12/07 10:21:03;;;;;;;9.70;8.85;;;;;;;9.26;53.42;98375.59;5021878;28;20738;-78
2023/12/07 10:23:31;;;;;;;8.90;8.10;;;;;;;9.16;52.81;98371.47;5030986;28;20195;-78
2023/12/07 10:25:59;;;;;;;9.70;8.77;;;;;;;8.93;53.71;98376.94;5010964;28;20191;-78
2023/12/07 10:28:26;;;;;;;9.38;8.57;;;;;;;8.77;54.44;98361.75;5007067;28;20660;-78
2023/12/07 10:30:53;;;;;;;9.52;8.55;;;;;;;8.93;53.87;98361.59;5006213;28;20232;-78
2023/12/07 10:33:20;;;;;;;9.40;8.55;;;;;;;9.35;52.90;98354.75;5007480;28;20668;-78
2023/12/07 10:35:48;;;;;;;9.50;8.77;;;;;;;8.72;54.45;98351.50;5008673;28;20198;-78
2023/12/07 10:38:17;;;;;;;8.98;8.23;;;;;;;9.07;53.15;98359.94;5005897;28;20208;-78
2023/12/07 10:42:15;;;;;;;8.60;7.80;;;;;;;9.54;51.41;98329.84;5036991;27;55539;-78
2023/12/07 10:44:43;;;;;;;9.00;8.25;;;;;;;10.10;51.24;98339.00;5068782;27;20233;-78
2023/12/07 10:47:11;;;;;;;9.30;8.50;;;;;;;10.20;49.92;98340.59;5132227;27;20191;-79
2023/12/07 10:49:41;;;;;;;8.95;8.15;;;;;;;9.98;50.72;98342.44;5103319;28;20187;-79
2023/12/07 10:52:08;;;;;;;8.90;8.13;;;;;;;9.41;51.16;98335.94;5104393;28;20221;-78
2023/12/07 10:54:40;;;;;;;9.30;8.40;;;;;;;9.95;49.79;98340.94;5100631;27;20183;-78
2023/12/07 10:57:08;;;;;;;9.43;8.63;;;;;;;9.65;50.76;98344.75;5104560;28;20203;-79
2023/12/07 10:59:39;;;;;;;9.52;8.63;;;;;;;9.54;51.20;98340.66;5102449;28;20206;-78
2023/12/07 11:02:07;;;;;;;8.80;8.02;;;;;;;9.71;50.55;98338.59;5103460;28;20219;-79
2023/12/07 11:04:33;;;;;;;8.68;7.85;;;;;;;10.24;49.17;98331.91;5083974;28;20218;-79
2023/12/07 11:07:05;;;;;;;7.53;6.93;;;;;;;10.47;47.17;98326.31;5103293;28;20205;-78
2023/12/07 11:09:36;;;;;;;7.90;7.30;;;;;;;10.60;46.73;98315.59;5104917;28;20302;-79
2023/12/07 11:12:09;;;;;;;6.90;6.30;;;;;;;10.28;47.38;98316.16;5103157;28;20187;-78
2023/12/07 11:14:37;;;;;;;7.05;6.45;;;;;;;9.96;47.95;98306.63;5104279;28;20236;-79
2023/12/07 11:17:04;;;;;;;7.53;6.85;;;;;;;10.16;48.31;98298.72;5102898;28;20640;-78
2023/12/07 11:19:49;;;;;;;7.53;6.93;;;;;;;10.26;48.22;98283.03;5102559;28;20202;-80
2023/12/07 11:22:16;;;;;;;7.10;6.50;;;;;;;9.90;48.47;98275.78;5100351;28;20215;-78
2023/12/07 11:24:57;;;;;;;8.70;8.00;;;;;;;10.13;47.86;98285.56;5104939;28;20342;-78
2023/12/07 11:27:26;;;;;;;8.35;7.60;;;;;;;9.13;50.53;98291.69;5087676;28;20225;-79
2023/12/07 11:30:36;;;;;;;8.30;7.60;;;;;;;9.86;49.23;98271.78;5071349;28;20805;-78
2023/12/07 11:33:04;;;;;;;8.03;7.33;;;;;;;9.90;49.63;98270.38;5012523;28;20768;-75
2023/12/07 11:35:31;;;;;;;8.85;8.10;;;;;;;9.28;50.76;98264.69;4996593;28;20666;-79
2023/12/07 11:38:03;;;;;;;7.18;6.47;;;;;;;9.82;48.78;98275.91;4967400;28;56288;-79
2023/12/07 11:40:30;;;;;;;7.72;7.13;;;;;;;9.26;49.47;98262.16;5041934;28;20200;-79
2023/12/07 11:42:57;;;;;;;8.40;7.70;;;;;;;9.23;50.40;98259.84;5044146;28;20215;-79
2023/12/07 11:45:38;;;;;;;8.83;8.13;;;;;;;9.51;50.04;98245.63;5040977;28;20227;-78
2023/12/07 11:48:13;;;;;;;9.13;7.90;;;;;;;9.59;49.08;98242.81;5039634;28;20771;-76
2023/12/07 11:50:59;;;;;;;8.68;7.97;;;;;;;7.98;53.43;98250.66;5025297;28;20559;-76
2023/12/07 11:53:26;;;;;;;8.23;7.53;;;;;;;8.46;52.54;98251.25;5042041;28;20303;-78